Ornslund, Denmark
Current Conditions -  °F | °C
As of 12:20 PM on Saturday 22 Nov 2014 (Local Time) from EKAH Reporting Station
Broken Clouds Broken Clouds  
Wind Chill:   Ceiling: 800
Heat Index:   Visibility: 6mi
Dew Point:   Wind: 6mph
Humidity: 81%   Direction: 180°S
Pressure: 30.24"   Gusts: NA
Location:  55.7°N, 10.6°E
Report Text: EKAH 221120Z AUTO 18005KT 120V250 9999NDV BKN008/// BKN025///BKN031/// 08/05 Q1024
Loading
Personal Weather Stations






























Interactive Weather Map New forecast layout! Learn more

10-Day Weather Forecast

Advertisements
Track Severe Weather on mobile